Terminal Aerodrome Forecast
Issued by NWS

Home | Current Version | Previous Version | Text Only | Print | Product List | Glossary On
Versions: 1 2 3 4 5 6 7 8 9 10 11 12 13 14 15
030
FTPA31 PHFO 072328
TAFHLI
TAF
PHLI 072328Z 0800/0824 01015G25KT P6SM SCT025 SCT050
     FM080600 02015G22KT P6SM SCT025 SCT050
     FM081200 35010KT P6SM FEW025 SCT050
     FM082000 03010G18KT P6SM FEW025 SCT050=

USA.gov is the U.S. government's official web portal to all federal, state and local government web resources and services.